Terminal Aerodrome Forecast
Issued by NWS

Home | Current Version | Previous Version | Text Only | Print | Product List | Glossary On
Versions: 1 2 3 4 5 6 7 8 9 10 11 12 13 14 15 16 17 18 19 20
000
FTUS44 KLZK 241136
TAFHRO
TAF
KHRO 241136Z 2412/2512 17012G25KT P6SM BKN250 WS020/19045KT
     FM241400 17015G25KT P6SM VCSH BKN050 BKN250 WS020/19045KT
     FM241900 18015G28KT P6SM VCTS BKN035CB OVC050
      TEMPO 2420/2424 3SM TSRA BR OVC035CB
     FM250000 19012G22KT P6SM VCTS SCT020CB OVC050=

USA.gov is the U.S. government's official web portal to all federal, state and local government web resources and services.